Terminal Aerodrome Forecast
Issued by NWS Medford, OR

Home | Current Version | Previous Version | Text Only | Print | Product List | Glossary On
Versions: 1 2 3 4 5 6 7 8 9 10 11 12 13 14 15 16
803
FTUS46 KMFR 211410 AAA
TAFMFR
TAF AMD
KMFR 211410Z 2114/2212 VRB02KT 2SM BR BCFG SCT001 BKN020 BKN040
      TEMPO 2114/2115 1/4SM FG BKN001
     FM211600 32003KT P6SM SCT025 BKN050
     FM212100 33005KT P6SM FEW035 SCT060 BKN150=

USA.gov is the U.S. government's official web portal to all federal, state and local government web resources and services.